上海/浦東 の空港の天気 - METARとTAF

上海浦東国際空港 ( ZSPD / PVG ) - 中華人民共和国 上海市
飛行場実況気象(Metar)
観測時間05/28 03:00 CST (05/27 19:00 UTC)
風向・風速南 3m/s
視程10km以上
天気現象
なし
気温17℃
湿度88%
気圧1012hPa
METARZSPD 271900Z 19003MPS CAVOK 17/15 Q1012 NOSIG
過去の天気等 Google飛行場航空写真 Wunderground天気予報

過去48時間のMETAR

飛行場予報(TAF)
発表時間: 5/27 23:25 CST (5/27 15:25 UTC)
予報対象時間: 28日2時 CST ~ 29日2時 CST
風向・風速南東 4m/s
視程6,000m
全天の4割程度の雲 雲底高度 610m
TAF ZSPD 271525Z 2718/2818 14004MPS 6000 SCT020 TX31/2806Z TN18/2721Z